sensor_id;sensor_type;location;lat;lon;timestamp;temperature;humidity
8872;DHT22;4472;52.092;9.820;2023-04-25T00:01:25;8.10;99.90
8872;DHT22;4472;52.092;9.820;2023-04-25T00:04:12;8.10;99.90
8872;DHT22;4472;52.092;9.820;2023-04-25T00:06:59;8.00;99.90
8872;DHT22;4472;52.092;9.820;2023-04-25T00:09:49;8.10;99.90
8872;DHT22;4472;52.092;9.820;2023-04-25T00:12:36;8.10;99.90
8872;DHT22;4472;52.092;9.820;2023-04-25T00:15:24;8.00;99.90
8872;DHT22;4472;52.092;9.820;2023-04-25T00:18:11;8.10;99.90
8872;DHT22;4472;52.092;9.820;2023-04-25T00:20:58;8.00;99.90
8872;DHT22;4472;52.092;9.820;2023-04-25T00:23:46;8.00;99.90
8872;DHT22;4472;52.092;9.820;2023-04-25T00:26:35;8.00;99.90
8872;DHT22;4472;52.092;9.820;2023-04-25T00:29:22;8.00;99.90
8872;DHT22;4472;52.092;9.820;2023-04-25T00:32:09;8.10;99.90
8872;DHT22;4472;52.092;9.820;2023-04-25T00:34:56;8.10;99.90
8872;DHT22;4472;52.092;9.820;2023-04-25T00:37:44;8.00;99.90
8872;DHT22;4472;52.092;9.820;2023-04-25T00:40:31;8.00;99.90
8872;DHT22;4472;52.092;9.820;2023-04-25T00:43:20;8.00;99.90
8872;DHT22;4472;52.092;9.820;2023-04-25T00:46:07;8.00;99.90
8872;DHT22;4472;52.092;9.820;2023-04-25T00:48:54;8.00;99.90
8872;DHT22;4472;52.092;9.820;2023-04-25T00:51:42;8.10;99.90
8872;DHT22;4472;52.092;9.820;2023-04-25T00:54:30;7.90;99.90
8872;DHT22;4472;52.092;9.820;2023-04-25T00:57:17;7.90;99.90
8872;DHT22;4472;52.092;9.820;2023-04-25T01:00:09;7.80;99.90
8872;DHT22;4472;52.092;9.820;2023-04-25T01:02:56;7.90;99.90
8872;DHT22;4472;52.092;9.820;2023-04-25T01:05:44;7.80;99.90
8872;DHT22;4472;52.092;9.820;2023-04-25T01:08:31;7.80;99.90
8872;DHT22;4472;52.092;9.820;2023-04-25T01:11:18;7.70;99.90
8872;DHT22;4472;52.092;9.820;2023-04-25T01:14:05;7.80;99.90
8872;DHT22;4472;52.092;9.820;2023-04-25T01:16:54;7.70;99.90
8872;DHT22;4472;52.092;9.820;2023-04-25T01:19:41;7.70;99.90
8872;DHT22;4472;52.092;9.820;2023-04-25T01:22:29;7.70;99.90
8872;DHT22;4472;52.092;9.820;2023-04-25T01:25:17;7.70;99.90
8872;DHT22;4472;52.092;9.820;2023-04-25T01:28:04;7.60;99.90
8872;DHT22;4472;52.092;9.820;2023-04-25T01:30:52;6.60;99.90
8872;DHT22;4472;52.092;9.820;2023-04-25T01:33:39;7.60;99.90
8872;DHT22;4472;52.092;9.820;2023-04-25T01:36:27;7.70;99.90
8872;DHT22;4472;52.092;9.820;2023-04-25T01:39:16;7.40;99.90
8872;DHT22;4472;52.092;9.820;2023-04-25T01:42:03;7.60;99.90
8872;DHT22;4472;52.092;9.820;2023-04-25T01:44:50;7.60;99.90
8872;DHT22;4472;52.092;9.820;2023-04-25T01:47:38;7.70;99.90
8872;DHT22;4472;52.092;9.820;2023-04-25T01:50:27;7.70;99.90
8872;DHT22;4472;52.092;9.820;2023-04-25T01:53:15;7.70;99.90
8872;DHT22;4472;52.092;9.820;2023-04-25T01:56:05;7.70;99.90
8872;DHT22;4472;52.092;9.820;2023-04-25T01:58:52;7.70;99.90
8872;DHT22;4472;52.092;9.820;2023-04-25T02:01:40;7.70;99.90
8872;DHT22;4472;52.092;9.820;2023-04-25T02:04:27;7.70;99.90
8872;DHT22;4472;52.092;9.820;2023-04-25T02:07:14;7.70;99.90
8872;DHT22;4472;52.092;9.820;2023-04-25T02:10:01;7.80;99.90
8872;DHT22;4472;52.092;9.820;2023-04-25T02:15:37;7.70;99.90
8872;DHT22;4472;52.092;9.820;2023-04-25T02:18:24;7.70;99.90
8872;DHT22;4472;52.092;9.820;2023-04-25T02:21:12;7.70;99.90
8872;DHT22;4472;52.092;9.820;2023-04-25T02:23:59;7.70;99.90
8872;DHT22;4472;52.092;9.820;2023-04-25T02:26:46;7.70;99.90
8872;DHT22;4472;52.092;9.820;2023-04-25T02:29:36;7.70;99.90
8872;DHT22;4472;52.092;9.820;2023-04-25T02:32:23;7.70;99.90
8872;DHT22;4472;52.092;9.820;2023-04-25T02:35:10;7.70;99.90
8872;DHT22;4472;52.092;9.820;2023-04-25T02:37:57;7.70;99.90
8872;DHT22;4472;52.092;9.820;2023-04-25T02:40:45;7.60;99.90
8872;DHT22;4472;52.092;9.820;2023-04-25T02:43:32;7.60;99.90
8872;DHT22;4472;52.092;9.820;2023-04-25T02:46:20;7.60;99.90
8872;DHT22;4472;52.092;9.820;2023-04-25T02:49:07;7.60;99.90
8872;DHT22;4472;52.092;9.820;2023-04-25T02:51:55;7.50;99.90
8872;DHT22;4472;52.092;9.820;2023-04-25T02:54:42;7.70;99.90
8872;DHT22;4472;52.092;9.820;2023-04-25T02:57:29;7.50;99.90
8872;DHT22;4472;52.092;9.820;2023-04-25T03:00:17;7.40;99.90
8872;DHT22;4472;52.092;9.820;2023-04-25T03:03:05;7.30;99.90
8872;DHT22;4472;52.092;9.820;2023-04-25T03:05:52;7.30;99.90
8872;DHT22;4472;52.092;9.820;2023-04-25T03:08:39;7.30;99.90
8872;DHT22;4472;52.092;9.820;2023-04-25T03:11:27;7.20;99.90
8872;DHT22;4472;52.092;9.820;2023-04-25T03:14:14;7.20;99.90
8872;DHT22;4472;52.092;9.820;2023-04-25T03:17:01;7.10;99.90
8872;DHT22;4472;52.092;9.820;2023-04-25T03:19:49;7.10;99.90
8872;DHT22;4472;52.092;9.820;2023-04-25T03:22:36;7.10;99.90
8872;DHT22;4472;52.092;9.820;2023-04-25T03:25:24;7.10;99.90
8872;DHT22;4472;52.092;9.820;2023-04-25T03:28:11;7.10;99.90
8872;DHT22;4472;52.092;9.820;2023-04-25T03:30:58;7.10;99.90
8872;DHT22;4472;52.092;9.820;2023-04-25T03:33:45;7.10;99.90
8872;DHT22;4472;52.092;9.820;2023-04-25T03:36:34;7.20;99.90
8872;DHT22;4472;52.092;9.820;2023-04-25T03:39:21;7.20;99.90
8872;DHT22;4472;52.092;9.820;2023-04-25T03:42:08;7.20;99.90
8872;DHT22;4472;52.092;9.820;2023-04-25T03:44:55;7.30;99.90
8872;DHT22;4472;52.092;9.820;2023-04-25T03:47:42;7.20;99.90
8872;DHT22;4472;52.092;9.820;2023-04-25T03:50:29;7.20;99.90
8872;DHT22;4472;52.092;9.820;2023-04-25T03:53:18;7.20;99.90
8872;DHT22;4472;52.092;9.820;2023-04-25T03:56:06;7.20;99.90
8872;DHT22;4472;52.092;9.820;2023-04-25T03:58:53;7.20;99.90
8872;DHT22;4472;52.092;9.820;2023-04-25T04:01:40;7.20;99.90
8872;DHT22;4472;52.092;9.820;2023-04-25T04:04:27;7.20;99.90
8872;DHT22;4472;52.092;9.820;2023-04-25T04:07:14;7.10;99.90
8872;DHT22;4472;52.092;9.820;2023-04-25T04:10:03;7.10;99.90
8872;DHT22;4472;52.092;9.820;2023-04-25T04:12:51;7.10;99.90
8872;DHT22;4472;52.092;9.820;2023-04-25T04:15:41;7.10;99.90
8872;DHT22;4472;52.092;9.820;2023-04-25T04:18:28;7.10;99.90
8872;DHT22;4472;52.092;9.820;2023-04-25T04:21:15;7.10;99.90
8872;DHT22;4472;52.092;9.820;2023-04-25T04:24:02;7.10;99.90
8872;DHT22;4472;52.092;9.820;2023-04-25T04:26:51;7.10;99.90
8872;DHT22;4472;52.092;9.820;2023-04-25T04:29:38;7.10;99.90
8872;DHT22;4472;52.092;9.820;2023-04-25T04:32:26;7.50;99.90
8872;DHT22;4472;52.092;9.820;2023-04-25T04:35:13;7.10;99.90
8872;DHT22;4472;52.092;9.820;2023-04-25T04:38:00;7.10;99.90
8872;DHT22;4472;52.092;9.820;2023-04-25T04:40:47;7.20;99.90
8872;DHT22;4472;52.092;9.820;2023-04-25T04:43:36;7.20;99.90
8872;DHT22;4472;52.092;9.820;2023-04-25T04:46:25;7.30;99.90
8872;DHT22;4472;52.092;9.820;2023-04-25T04:49:13;7.30;99.90
8872;DHT22;4472;52.092;9.820;2023-04-25T04:52:00;7.30;99.90
8872;DHT22;4472;52.092;9.820;2023-04-25T04:54:47;7.40;99.90
8872;DHT22;4472;52.092;9.820;2023-04-25T04:57:35;7.40;99.90
8872;DHT22;4472;52.092;9.820;2023-04-25T05:00:25;7.50;99.90
8872;DHT22;4472;52.092;9.820;2023-04-25T05:03:13;7.50;99.90
8872;DHT22;4472;52.092;9.820;2023-04-25T05:06:00;7.40;99.90
8872;DHT22;4472;52.092;9.820;2023-04-25T05:08:47;7.40;99.90
8872;DHT22;4472;52.092;9.820;2023-04-25T05:11:34;7.40;99.90
8872;DHT22;4472;52.092;9.820;2023-04-25T05:14:21;7.40;99.90
8872;DHT22;4472;52.092;9.820;2023-04-25T05:17:10;7.40;99.90
8872;DHT22;4472;52.092;9.820;2023-04-25T05:19:57;7.50;99.90
8872;DHT22;4472;52.092;9.820;2023-04-25T05:22:44;7.60;99.90
8872;DHT22;4472;52.092;9.820;2023-04-25T05:25:31;7.60;99.90
8872;DHT22;4472;52.092;9.820;2023-04-25T05:28:19;7.70;99.90
8872;DHT22;4472;52.092;9.820;2023-04-25T05:31:07;7.70;99.90
8872;DHT22;4472;52.092;9.820;2023-04-25T05:33:55;7.70;99.90
8872;DHT22;4472;52.092;9.820;2023-04-25T05:36:42;7.70;99.90
8872;DHT22;4472;52.092;9.820;2023-04-25T05:39:29;7.70;99.90
8872;DHT22;4472;52.092;9.820;2023-04-25T05:42:16;7.70;99.90
8872;DHT22;4472;52.092;9.820;2023-04-25T05:45:04;7.80;99.90
8872;DHT22;4472;52.092;9.820;2023-04-25T05:47:52;7.70;99.90
8872;DHT22;4472;52.092;9.820;2023-04-25T05:50:55;7.70;99.90
8872;DHT22;4472;52.092;9.820;2023-04-25T05:53:42;7.80;99.90
8872;DHT22;4472;52.092;9.820;2023-04-25T05:56:29;7.70;99.90
8872;DHT22;4472;52.092;9.820;2023-04-25T05:59:16;7.70;99.90
8872;DHT22;4472;52.092;9.820;2023-04-25T06:02:03;7.70;99.90
8872;DHT22;4472;52.092;9.820;2023-04-25T06:04:51;7.70;99.90
8872;DHT22;4472;52.092;9.820;2023-04-25T06:07:39;7.70;99.90
8872;DHT22;4472;52.092;9.820;2023-04-25T06:10:26;7.70;99.90
8872;DHT22;4472;52.092;9.820;2023-04-25T06:13:13;7.80;99.90
8872;DHT22;4472;52.092;9.820;2023-04-25T06:16:01;7.80;99.90
8872;DHT22;4472;52.092;9.820;2023-04-25T06:18:48;7.80;99.90
8872;DHT22;4472;52.092;9.820;2023-04-25T06:21:35;7.90;99.90
8872;DHT22;4472;52.092;9.820;2023-04-25T06:24:23;7.90;99.90
8872;DHT22;4472;52.092;9.820;2023-04-25T06:27:10;8.00;99.90
8872;DHT22;4472;52.092;9.820;2023-04-25T06:29:58;8.00;99.90
8872;DHT22;4472;52.092;9.820;2023-04-25T06:32:45;8.10;99.90
8872;DHT22;4472;52.092;9.820;2023-04-25T06:35:32;8.10;99.90
8872;DHT22;4472;52.092;9.820;2023-04-25T06:38:19;8.30;99.90
8872;DHT22;4472;52.092;9.820;2023-04-25T06:41:08;8.30;99.90
8872;DHT22;4472;52.092;9.820;2023-04-25T06:43:55;8.40;99.90
8872;DHT22;4472;52.092;9.820;2023-04-25T06:46:42;8.40;99.90
8872;DHT22;4472;52.092;9.820;2023-04-25T06:49:29;8.40;99.90
8872;DHT22;4472;52.092;9.820;2023-04-25T06:52:16;8.40;99.90
8872;DHT22;4472;52.092;9.820;2023-04-25T06:55:05;8.40;99.90
8872;DHT22;4472;52.092;9.820;2023-04-25T06:57:54;8.40;99.90
8872;DHT22;4472;52.092;9.820;2023-04-25T07:00:41;8.50;99.90
8872;DHT22;4472;52.092;9.820;2023-04-25T07:03:28;8.60;99.90
8872;DHT22;4472;52.092;9.820;2023-04-25T07:06:16;8.80;99.90
8872;DHT22;4472;52.092;9.820;2023-04-25T07:09:03;9.00;99.90
8872;DHT22;4472;52.092;9.820;2023-04-25T07:11:50;9.40;99.90
8872;DHT22;4472;52.092;9.820;2023-04-25T07:14:39;9.70;99.90
8872;DHT22;4472;52.092;9.820;2023-04-25T07:17:26;9.80;99.90
8872;DHT22;4472;52.092;9.820;2023-04-25T07:20:13;9.90;99.90
8872;DHT22;4472;52.092;9.820;2023-04-25T07:23:01;9.90;99.90
8872;DHT22;4472;52.092;9.820;2023-04-25T07:25:49;10.10;99.90
8872;DHT22;4472;52.092;9.820;2023-04-25T07:28:36;10.30;99.90
8872;DHT22;4472;52.092;9.820;2023-04-25T07:31:24;10.20;96.60
8872;DHT22;4472;52.092;9.820;2023-04-25T07:34:11;10.10;98.00
8872;DHT22;4472;52.092;9.820;2023-04-25T07:36:59;10.20;99.40
8872;DHT22;4472;52.092;9.820;2023-04-25T07:39:46;10.20;98.40
8872;DHT22;4472;52.092;9.820;2023-04-25T07:42:33;10.10;97.30
8872;DHT22;4472;52.092;9.820;2023-04-25T07:45:20;10.00;98.20
8872;DHT22;4472;52.092;9.820;2023-04-25T07:48:09;10.10;98.10
8872;DHT22;4472;52.092;9.820;2023-04-25T07:50:56;10.10;98.80
8872;DHT22;4472;52.092;9.820;2023-04-25T07:53:43;10.20;98.60
8872;DHT22;4472;52.092;9.820;2023-04-25T07:56:30;10.20;99.50
8872;DHT22;4472;52.092;9.820;2023-04-25T07:59:17;10.10;97.30
8872;DHT22;4472;52.092;9.820;2023-04-25T08:02:05;10.10;97.70
8872;DHT22;4472;52.092;9.820;2023-04-25T08:04:55;10.10;98.20
8872;DHT22;4472;52.092;9.820;2023-04-25T08:07:42;10.00;98.80
8872;DHT22;4472;52.092;9.820;2023-04-25T08:10:29;10.10;99.90
8872;DHT22;4472;52.092;9.820;2023-04-25T08:13:17;10.30;99.30
8872;DHT22;4472;52.092;9.820;2023-04-25T08:16:04;10.60;97.50
8872;DHT22;4472;52.092;9.820;2023-04-25T08:18:51;10.70;96.70
8872;DHT22;4472;52.092;9.820;2023-04-25T08:21:40;10.60;96.20
8872;DHT22;4472;52.092;9.820;2023-04-25T08:24:27;10.50;96.20
8872;DHT22;4472;52.092;9.820;2023-04-25T08:27:14;10.40;96.20
8872;DHT22;4472;52.092;9.820;2023-04-25T08:30:01;10.50;96.90
8872;DHT22;4472;52.092;9.820;2023-04-25T08:32:49;10.60;96.70
8872;DHT22;4472;52.092;9.820;2023-04-25T08:35:36;10.70;95.50
8872;DHT22;4472;52.092;9.820;2023-04-25T08:38:25;10.60;94.10
8872;DHT22;4472;52.092;9.820;2023-04-25T08:41:12;10.60;94.20
8872;DHT22;4472;52.092;9.820;2023-04-25T08:44:01;10.50;94.60
8872;DHT22;4472;52.092;9.820;2023-04-25T08:46:51;10.70;94.60
8872;DHT22;4472;52.092;9.820;2023-04-25T08:49:40;10.80;94.10
8872;DHT22;4472;52.092;9.820;2023-04-25T08:52:36;10.90;93.40
8872;DHT22;4472;52.092;9.820;2023-04-25T08:55:25;11.10;93.00
8872;DHT22;4472;52.092;9.820;2023-04-25T08:58:13;11.10;92.40
8872;DHT22;4472;52.092;9.820;2023-04-25T09:01:00;10.90;90.40
8872;DHT22;4472;52.092;9.820;2023-04-25T09:03:48;10.60;89.40
8872;DHT22;4472;52.092;9.820;2023-04-25T09:06:36;10.30;89.50
8872;DHT22;4472;52.092;9.820;2023-04-25T09:09:23;10.00;90.10
8872;DHT22;4472;52.092;9.820;2023-04-25T09:12:12;10.00;92.30
8872;DHT22;4472;52.092;9.820;2023-04-25T09:15:05;10.20;93.40
8872;DHT22;4472;52.092;9.820;2023-04-25T09:17:55;10.40;93.50
8872;DHT22;4472;52.092;9.820;2023-04-25T09:20:43;10.60;93.50
8872;DHT22;4472;52.092;9.820;2023-04-25T09:23:30;10.40;91.80
8872;DHT22;4472;52.092;9.820;2023-04-25T09:26:20;10.10;92.00
8872;DHT22;4472;52.092;9.820;2023-04-25T09:29:08;9.90;93.30
8872;DHT22;4472;52.092;9.820;2023-04-25T09:32:15;9.70;93.40
8872;DHT22;4472;52.092;9.820;2023-04-25T09:35:02;9.60;94.00
8872;DHT22;4472;52.092;9.820;2023-04-25T09:37:50;9.50;95.00
8872;DHT22;4472;52.092;9.820;2023-04-25T09:40:41;9.40;95.30
8872;DHT22;4472;52.092;9.820;2023-04-25T09:43:28;9.40;95.80
8872;DHT22;4472;52.092;9.820;2023-04-25T09:46:17;9.50;95.20
8872;DHT22;4472;52.092;9.820;2023-04-25T09:49:07;9.60;96.20
8872;DHT22;4472;52.092;9.820;2023-04-25T09:51:55;9.80;96.40
8872;DHT22;4472;52.092;9.820;2023-04-25T09:54:44;10.20;95.50
8872;DHT22;4472;52.092;9.820;2023-04-25T09:57:31;10.30;95.40
8872;DHT22;4472;52.092;9.820;2023-04-25T10:00:19;10.40;94.50
8872;DHT22;4472;52.092;9.820;2023-04-25T10:03:09;10.40;93.70
8872;DHT22;4472;52.092;9.820;2023-04-25T10:05:59;10.20;93.80
8872;DHT22;4472;52.092;9.820;2023-04-25T10:08:49;10.00;93.40
8872;DHT22;4472;52.092;9.820;2023-04-25T10:11:38;9.80;94.80
8872;DHT22;4472;52.092;9.820;2023-04-25T10:14:26;9.60;95.10
8872;DHT22;4472;52.092;9.820;2023-04-25T10:17:20;9.40;95.30
8872;DHT22;4472;52.092;9.820;2023-04-25T10:20:09;9.30;96.30
8872;DHT22;4472;52.092;9.820;2023-04-25T10:23:03;9.30;98.10
8872;DHT22;4472;52.092;9.820;2023-04-25T10:25:54;9.40;98.40
8872;DHT22;4472;52.092;9.820;2023-04-25T10:28:57;9.50;98.30
8872;DHT22;4472;52.092;9.820;2023-04-25T10:31:46;9.60;97.50
8872;DHT22;4472;52.092;9.820;2023-04-25T10:34:40;9.60;98.50
8872;DHT22;4472;52.092;9.820;2023-04-25T10:37:30;9.80;98.70
8872;DHT22;4472;52.092;9.820;2023-04-25T10:40:21;10.00;97.10
8872;DHT22;4472;52.092;9.820;2023-04-25T10:43:37;10.30;97.70
8872;DHT22;4472;52.092;9.820;2023-04-25T10:46:30;10.60;96.30
8872;DHT22;4472;52.092;9.820;2023-04-25T10:49:33;10.80;96.60
8872;DHT22;4472;52.092;9.820;2023-04-25T10:52:28;10.80;93.20
8872;DHT22;4472;52.092;9.820;2023-04-25T10:55:16;10.80;92.90
8872;DHT22;4472;52.092;9.820;2023-04-25T10:58:04;10.80;93.90
8872;DHT22;4472;52.092;9.820;2023-04-25T11:00:51;10.70;92.60
8872;DHT22;4472;52.092;9.820;2023-04-25T11:03:40;10.70;91.70
8872;DHT22;4472;52.092;9.820;2023-04-25T11:06:31;10.50;92.20
8872;DHT22;4472;52.092;9.820;2023-04-25T11:09:25;10.50;92.90
8872;DHT22;4472;52.092;9.820;2023-04-25T11:12:13;10.60;92.30
8872;DHT22;4472;52.092;9.820;2023-04-25T11:15:03;10.60;91.10
8872;DHT22;4472;52.092;9.820;2023-04-25T11:17:51;10.70;91.80
8872;DHT22;4472;52.092;9.820;2023-04-25T11:20:38;10.70;91.90
8872;DHT22;4472;52.092;9.820;2023-04-25T11:23:30;11.00;91.90
8872;DHT22;4472;52.092;9.820;2023-04-25T11:26:20;11.60;92.50
8872;DHT22;4472;52.092;9.820;2023-04-25T11:29:07;11.60;90.00
8872;DHT22;4472;52.092;9.820;2023-04-25T11:31:55;11.60;87.00
8872;DHT22;4472;52.092;9.820;2023-04-25T11:34:44;11.50;86.80
8872;DHT22;4472;52.092;9.820;2023-04-25T11:37:32;11.80;89.30
8872;DHT22;4472;52.092;9.820;2023-04-25T11:40:20;12.00;91.10
8872;DHT22;4472;52.092;9.820;2023-04-25T11:43:09;12.10;85.70
8872;DHT22;4472;52.092;9.820;2023-04-25T11:45:56;11.90;84.90
8872;DHT22;4472;52.092;9.820;2023-04-25T11:48:43;11.60;86.20
8872;DHT22;4472;52.092;9.820;2023-04-25T11:51:38;11.40;85.10
8872;DHT22;4472;52.092;9.820;2023-04-25T11:54:25;11.10;84.50
8872;DHT22;4472;52.092;9.820;2023-04-25T11:57:13;10.90;86.40
8872;DHT22;4472;52.092;9.820;2023-04-25T12:00:13;10.80;87.40
8872;DHT22;4472;52.092;9.820;2023-04-25T12:03:01;10.70;87.60
8872;DHT22;4472;52.092;9.820;2023-04-25T12:05:50;10.60;88.40
8872;DHT22;4472;52.092;9.820;2023-04-25T12:08:37;10.40;87.20
8872;DHT22;4472;52.092;9.820;2023-04-25T12:11:24;10.30;89.00
8872;DHT22;4472;52.092;9.820;2023-04-25T12:14:11;10.20;90.10
8872;DHT22;4472;52.092;9.820;2023-04-25T12:17:02;10.00;90.40
8872;DHT22;4472;52.092;9.820;2023-04-25T12:19:49;9.80;90.60
8872;DHT22;4472;52.092;9.820;2023-04-25T12:22:36;9.80;91.90
8872;DHT22;4472;52.092;9.820;2023-04-25T12:25:37;9.70;93.00
8872;DHT22;4472;52.092;9.820;2023-04-25T12:28:25;9.80;93.70
8872;DHT22;4472;52.092;9.820;2023-04-25T12:31:13;10.50;92.10
8872;DHT22;4472;52.092;9.820;2023-04-25T12:34:03;10.30;93.00
8872;DHT22;4472;52.092;9.820;2023-04-25T12:36:52;10.50;90.50
8872;DHT22;4472;52.092;9.820;2023-04-25T12:39:39;10.80;91.20
8872;DHT22;4472;52.092;9.820;2023-04-25T12:42:27;11.00;91.50
8872;DHT22;4472;52.092;9.820;2023-04-25T12:45:14;11.20;90.30
8872;DHT22;4472;52.092;9.820;2023-04-25T12:48:01;11.30;89.50
8872;DHT22;4472;52.092;9.820;2023-04-25T12:50:50;11.30;89.00
8872;DHT22;4472;52.092;9.820;2023-04-25T12:53:38;11.40;84.50
8872;DHT22;4472;52.092;9.820;2023-04-25T12:56:26;11.60;88.40
8872;DHT22;4472;52.092;9.820;2023-04-25T13:02:01;11.50;85.20
8872;DHT22;4472;52.092;9.820;2023-04-25T13:04:48;12.30;85.20
8872;DHT22;4472;52.092;9.820;2023-04-25T13:07:37;12.00;84.50
8872;DHT22;4472;52.092;9.820;2023-04-25T13:10:24;12.10;84.90
8872;DHT22;4472;52.092;9.820;2023-04-25T13:13:11;11.60;85.90
8872;DHT22;4472;52.092;9.820;2023-04-25T13:15:58;11.60;88.80
8872;DHT22;4472;52.092;9.820;2023-04-25T13:18:46;11.60;88.30
8872;DHT22;4472;52.092;9.820;2023-04-25T13:21:34;11.30;86.00
8872;DHT22;4472;52.092;9.820;2023-04-25T13:24:22;10.90;85.90
8872;DHT22;4472;52.092;9.820;2023-04-25T13:27:10;10.70;89.20
8872;DHT22;4472;52.092;9.820;2023-04-25T13:29:57;10.60;90.50
8872;DHT22;4472;52.092;9.820;2023-04-25T13:32:44;10.50;90.30
8872;DHT22;4472;52.092;9.820;2023-04-25T13:35:31;10.30;90.80
8872;DHT22;4472;52.092;9.820;2023-04-25T13:38:18;10.00;92.00
8872;DHT22;4472;52.092;9.820;2023-04-25T13:41:07;9.60;94.10
8872;DHT22;4472;52.092;9.820;2023-04-25T13:43:56;9.10;95.70
8872;DHT22;4472;52.092;9.820;2023-04-25T13:46:43;9.10;97.50
8872;DHT22;4472;52.092;9.820;2023-04-25T13:49:32;8.70;97.40
8872;DHT22;4472;52.092;9.820;2023-04-25T13:52:19;8.70;98.10
8872;DHT22;4472;52.092;9.820;2023-04-25T13:55:07;8.80;99.00
8872;DHT22;4472;52.092;9.820;2023-04-25T13:57:55;8.60;96.20
8872;DHT22;4472;52.092;9.820;2023-04-25T14:00:42;9.00;96.70
8872;DHT22;4472;52.092;9.820;2023-04-25T14:03:32;9.10;97.20
8872;DHT22;4472;52.092;9.820;2023-04-25T14:06:20;9.10;97.00
8872;DHT22;4472;52.092;9.820;2023-04-25T14:09:09;9.10;97.60
8872;DHT22;4472;52.092;9.820;2023-04-25T14:11:59;9.90;98.30
8872;DHT22;4472;52.092;9.820;2023-04-25T14:14:47;9.60;97.50
8872;DHT22;4472;52.092;9.820;2023-04-25T14:17:34;9.60;96.80
8872;DHT22;4472;52.092;9.820;2023-04-25T14:20:21;9.80;96.30
8872;DHT22;4472;52.092;9.820;2023-04-25T14:23:09;10.00;95.00
8872;DHT22;4472;52.092;9.820;2023-04-25T14:25:56;10.10;94.70
8872;DHT22;4472;52.092;9.820;2023-04-25T14:28:43;10.60;95.60
8872;DHT22;4472;52.092;9.820;2023-04-25T14:31:32;10.50;96.00
8872;DHT22;4472;52.092;9.820;2023-04-25T14:34:19;10.50;93.60
8872;DHT22;4472;52.092;9.820;2023-04-25T14:37:06;10.30;93.50
8872;DHT22;4472;52.092;9.820;2023-04-25T14:39:54;10.30;94.60
8872;DHT22;4472;52.092;9.820;2023-04-25T14:42:41;10.20;94.50
8872;DHT22;4472;52.092;9.820;2023-04-25T14:45:28;10.10;94.70
8872;DHT22;4472;52.092;9.820;2023-04-25T14:48:17;10.10;94.60
8872;DHT22;4472;52.092;9.820;2023-04-25T14:51:05;9.80;96.30
8872;DHT22;4472;52.092;9.820;2023-04-25T14:53:52;9.20;98.90
8872;DHT22;4472;52.092;9.820;2023-04-25T14:56:40;8.70;99.90
8872;DHT22;4472;52.092;9.820;2023-04-25T14:59:27;8.60;99.90
8872;DHT22;4472;52.092;9.820;2023-04-25T15:02:14;8.20;99.90
8872;DHT22;4472;52.092;9.820;2023-04-25T15:05:03;8.70;99.90
8872;DHT22;4472;52.092;9.820;2023-04-25T15:07:50;8.40;99.90
8872;DHT22;4472;52.092;9.820;2023-04-25T15:10:38;8.50;99.90
8872;DHT22;4472;52.092;9.820;2023-04-25T15:13:25;8.70;99.90
8872;DHT22;4472;52.092;9.820;2023-04-25T15:16:12;8.80;99.90
8872;DHT22;4472;52.092;9.820;2023-04-25T15:18:59;8.90;99.90
8872;DHT22;4472;52.092;9.820;2023-04-25T15:21:50;9.10;99.90
8872;DHT22;4472;52.092;9.820;2023-04-25T15:24:38;9.40;99.90
8872;DHT22;4472;52.092;9.820;2023-04-25T15:27:25;9.70;99.90
8872;DHT22;4472;52.092;9.820;2023-04-25T15:30:13;9.80;99.90
8872;DHT22;4472;52.092;9.820;2023-04-25T15:33:01;9.90;99.50
8872;DHT22;4472;52.092;9.820;2023-04-25T15:35:48;10.10;98.60
8872;DHT22;4472;52.092;9.820;2023-04-25T15:38:37;10.60;97.40
8872;DHT22;4472;52.092;9.820;2023-04-25T15:41:24;10.40;96.30
8872;DHT22;4472;52.092;9.820;2023-04-25T15:44:11;10.50;96.80
8872;DHT22;4472;52.092;9.820;2023-04-25T15:46:58;10.40;97.60
8872;DHT22;4472;52.092;9.820;2023-04-25T15:49:45;10.40;96.50
8872;DHT22;4472;52.092;9.820;2023-04-25T15:52:33;10.50;97.00
8872;DHT22;4472;52.092;9.820;2023-04-25T15:55:22;10.60;97.30
8872;DHT22;4472;52.092;9.820;2023-04-25T15:58:11;10.80;97.50
8872;DHT22;4472;52.092;9.820;2023-04-25T16:00:58;11.00;97.10
8872;DHT22;4472;52.092;9.820;2023-04-25T16:03:45;11.20;96.00
8872;DHT22;4472;52.092;9.820;2023-04-25T16:06:32;11.30;94.90
8872;DHT22;4472;52.092;9.820;2023-04-25T16:09:19;11.10;94.50
8872;DHT22;4472;52.092;9.820;2023-04-25T16:12:09;11.00;94.20
8872;DHT22;4472;52.092;9.820;2023-04-25T16:14:59;10.80;94.00
8872;DHT22;4472;52.092;9.820;2023-04-25T16:17:47;10.60;94.60
8872;DHT22;4472;52.092;9.820;2023-04-25T16:20:35;10.50;95.50
8872;DHT22;4472;52.092;9.820;2023-04-25T16:23:22;10.40;96.30
8872;DHT22;4472;52.092;9.820;2023-04-25T16:26:09;10.30;96.90
8872;DHT22;4472;52.092;9.820;2023-04-25T16:28:57;10.20;97.30
8872;DHT22;4472;52.092;9.820;2023-04-25T16:31:45;10.00;95.30
8872;DHT22;4472;52.092;9.820;2023-04-25T16:34:32;9.90;95.50
8872;DHT22;4472;52.092;9.820;2023-04-25T16:37:20;9.70;95.10
8872;DHT22;4472;52.092;9.820;2023-04-25T16:40:07;9.60;95.00
8872;DHT22;4472;52.092;9.820;2023-04-25T16:42:55;9.50;95.70
8872;DHT22;4472;52.092;9.820;2023-04-25T16:45:43;9.50;96.10
8872;DHT22;4472;52.092;9.820;2023-04-25T16:48:32;9.50;96.70
8872;DHT22;4472;52.092;9.820;2023-04-25T16:51:19;9.40;97.10
8872;DHT22;4472;52.092;9.820;2023-04-25T16:54:06;9.40;95.90
8872;DHT22;4472;52.092;9.820;2023-04-25T16:56:53;9.40;94.60
8872;DHT22;4472;52.092;9.820;2023-04-25T16:59:40;9.40;95.00
8872;DHT22;4472;52.092;9.820;2023-04-25T17:02:29;9.50;95.80
8872;DHT22;4472;52.092;9.820;2023-04-25T17:05:16;9.60;95.80
8872;DHT22;4472;52.092;9.820;2023-04-25T17:08:04;9.70;95.90
8872;DHT22;4472;52.092;9.820;2023-04-25T17:10:51;9.90;96.20
8872;DHT22;4472;52.092;9.820;2023-04-25T17:13:38;10.00;95.50
8872;DHT22;4472;52.092;9.820;2023-04-25T17:16:34;9.90;96.40
8872;DHT22;4472;52.092;9.820;2023-04-25T17:19:22;9.60;95.30
8872;DHT22;4472;52.092;9.820;2023-04-25T17:22:10;9.50;96.20
8872;DHT22;4472;52.092;9.820;2023-04-25T17:24:58;9.30;96.60
8872;DHT22;4472;52.092;9.820;2023-04-25T17:27:45;9.20;97.50
8872;DHT22;4472;52.092;9.820;2023-04-25T17:30:32;9.20;98.00
8872;DHT22;4472;52.092;9.820;2023-04-25T17:33:19;9.00;98.80
8872;DHT22;4472;52.092;9.820;2023-04-25T17:36:13;9.00;99.10
8872;DHT22;4472;52.092;9.820;2023-04-25T17:39:00;8.80;99.90
8872;DHT22;4472;52.092;9.820;2023-04-25T17:41:47;8.70;99.90
8872;DHT22;4472;52.092;9.820;2023-04-25T17:44:34;8.40;99.90
8872;DHT22;4472;52.092;9.820;2023-04-25T17:47:22;8.00;99.90
8872;DHT22;4472;52.092;9.820;2023-04-25T17:50:09;7.70;99.90
8872;DHT22;4472;52.092;9.820;2023-04-25T17:52:59;7.60;99.90
8872;DHT22;4472;52.092;9.820;2023-04-25T17:55:48;7.50;99.90
8872;DHT22;4472;52.092;9.820;2023-04-25T17:58:35;7.40;99.90
8872;DHT22;4472;52.092;9.820;2023-04-25T18:01:22;7.40;99.90
8872;DHT22;4472;52.092;9.820;2023-04-25T18:04:09;7.40;99.90
8872;DHT22;4472;52.092;9.820;2023-04-25T18:06:57;7.60;99.90
8872;DHT22;4472;52.092;9.820;2023-04-25T18:09:45;7.50;99.90
8872;DHT22;4472;52.092;9.820;2023-04-25T18:12:33;7.60;99.90
8872;DHT22;4472;52.092;9.820;2023-04-25T18:15:20;7.50;99.90
8872;DHT22;4472;52.092;9.820;2023-04-25T18:18:08;7.50;99.90
8872;DHT22;4472;52.092;9.820;2023-04-25T18:21:00;7.50;99.90
8872;DHT22;4472;52.092;9.820;2023-04-25T18:23:49;7.40;99.90
8872;DHT22;4472;52.092;9.820;2023-04-25T18:26:38;7.40;99.90
8872;DHT22;4472;52.092;9.820;2023-04-25T18:29:25;7.40;99.90
8872;DHT22;4472;52.092;9.820;2023-04-25T18:32:13;7.40;99.90
8872;DHT22;4472;52.092;9.820;2023-04-25T18:35:00;7.30;99.90